Canmore, Canada
Current Conditions -  °F | °C
As of 5:00 AM on Monday 24 Nov 2014 (Local Time) from CYBW Reporting Station
Overcast Overcast  
Wind Chill: 23°   Ceiling: 10000
Heat Index: 28°   Visibility: 9mi
Dew Point: 18°   Wind: 5mph
Humidity: 64%   Direction: 350°N
Pressure: 29.94"   Gusts: NA
Location:  51.09°N, 115.36°W
Report Text: CYBW 241200Z AUTO 35004KT 9SM OVC100 M02/M08 A2994 RMK SLP184
Loading
Personal Weather Stations






























Interactive Weather Map New forecast layout! Learn more

10-Day Weather Forecast

Advertisements
Track Severe Weather on mobile